Time;durP1;ratioP1;P1;durP2;ratioP2;P2;SDS_P1;SDS_P2;PMS_P1;PMS_P2;Temp;Humidity;BMP_temperature;BMP_pressure;BME280_temperature;BME280_humidity;BME280_pressure;Samples;Min_cycle;Max_cycle;Signal;HPM_P1;HPM_P2
2022/01/25 00:08:26;;;;;;;42.10;17.02;;;;;;;;;;5050125;28;20506;-71
2022/01/25 00:32:10;;;;;;;38.30;16.35;;;;;;;;;;5028689;28;20469;-70
2022/01/25 00:34:37;;;;;;;45.28;16.10;;;;;;;;;;5024417;28;20117;-71
2022/01/25 00:37:03;;;;;;;38.63;16.20;;;;;;;;;;5020533;28;20042;-70
2022/01/25 00:39:29;;;;;;;39.88;15.88;;;;;;;;;;5027545;28;20237;-71
2022/01/25 00:41:55;;;;;;;39.58;15.35;;;;;;;;;;5026066;28;20073;-70
2022/01/25 00:44:21;;;;;;;40.63;15.63;;;;;;;;;;5027476;28;20047;-70
2022/01/25 00:46:48;;;;;;;45.15;17.02;;;;;;;;;;5027810;28;20033;-71
2022/01/25 00:49:24;;;;;;;43.30;17.13;;;2.70;99.90;;;;;;5026722;28;20041;-71
2022/01/25 00:56:45;;;;;;;39.22;15.50;;;4.10;99.90;;;;;;5044811;28;20021;-71
2022/01/25 00:59:18;;;;;;;41.47;15.98;;;3.90;99.90;;;;;;5047898;28;20558;-70
2022/01/25 01:01:47;;;;;;;40.78;16.08;;;4.10;99.90;;;;;;5050837;28;20036;-70
2022/01/25 01:04:13;;;;;;;42.10;16.05;;;;;;;;;;5047241;28;20024;-70
2022/01/25 01:06:42;;;;;;;40.28;16.02;;;7.40;99.90;;;;;;5047090;28;20021;-71
2022/01/25 01:09:09;;;;;;;43.00;15.73;;;;;;;;;;5047193;28;20071;-71
2022/01/25 01:11:41;;;;;;;41.25;16.40;;;;;;;;;;5033567;28;20549;-70
2022/01/25 01:31:03;;;;;;;48.90;16.15;;;;;;;;;;5047233;28;20591;-71
2022/01/25 01:43:43;;;;;;;40.03;16.35;;;;;;;;;;5048127;28;20036;-70
2022/01/25 01:48:52;;;;;;;59.97;18.40;;;4.20;99.90;;;;;;5044728;28;20017;-70
2022/01/25 01:51:26;;;;;;;50.63;17.42;;;4.20;99.90;;;;;;5039012;28;20028;-70
2022/01/25 01:53:53;;;;;;;46.42;16.40;;;;;;;;;;5048419;28;20047;-70
2022/01/25 01:56:23;;;;;;;41.45;15.43;;;4.10;99.90;;;;;;5049342;28;20594;-70
2022/01/25 01:58:57;;;;;;;42.03;15.52;;;4.00;99.90;;;;;;5048163;28;20190;-70
2022/01/25 02:01:27;;;;;;;46.55;16.77;;;2.30;99.90;;;;;;5046758;28;20037;-71
2022/01/25 02:04:03;;;;;;;38.25;15.52;;;5.90;99.90;;;;;;5046419;28;20360;-70
2022/01/25 02:06:36;;;;;;;39.00;14.60;;;3.90;99.90;;;;;;5046319;28;20045;-70
2022/01/25 02:09:08;;;;;;;43.97;15.93;;;4.00;99.90;;;;;;5046659;28;20021;-70
2022/01/25 02:11:41;;;;;;;43.88;16.33;;;4.00;99.90;;;;;;5032275;28;20038;-69
2022/01/25 02:14:13;;;;;;;42.38;16.52;;;4.00;99.90;;;;;;5046212;28;20156;-70
2022/01/25 02:24:51;;;;;;;40.95;14.95;;;2.50;99.90;;;;;;5046698;28;20095;-70
2022/01/25 02:27:21;;;;;;;33.80;13.93;;;3.70;99.90;;;;;;5045941;28;20025;-70
2022/01/25 02:29:51;;;;;;;39.65;15.73;;;2.10;99.90;;;;;;5046630;28;20029;-70
2022/01/25 02:32:19;;;;;;;33.50;14.23;;;7.30;99.90;;;;;;5048700;28;20029;-70
2022/01/25 02:34:45;;;;;;;32.05;14.00;;;1.90;99.90;;;;;;5048071;28;20119;-70
2022/01/25 02:37:13;;;;;;;33.88;14.02;;;3.60;99.90;;;;;;5047708;28;20447;-70
2022/01/25 02:39:43;;;;;;;28.42;12.43;;;3.70;99.90;;;;;;5047752;28;20033;-70
2022/01/25 02:42:11;;;;;;;34.17;14.33;;;3.70;99.90;;;;;;5046384;28;20056;-70
2022/01/25 02:44:38;;;;;;;33.72;13.65;;;3.70;99.90;;;;;;5048371;28;20116;-70
2022/01/25 02:49:50;;;;;;;42.97;15.80;;;;;;;;;;5048703;28;20031;-70
2022/01/25 02:52:16;;;;;;;40.25;15.60;;;;;;;;;;5045823;28;20024;-69
2022/01/25 02:54:42;;;;;;;54.05;17.55;;;2.80;99.90;;;;;;5045767;28;20471;-70
2022/01/25 02:57:07;;;;;;;34.95;14.82;;;4.70;99.90;;;;;;5046515;28;20039;-70
2022/01/25 02:59:35;;;;;;;42.42;15.98;;;;;;;;;;5048276;28;20029;-70
2022/01/25 03:02:01;;;;;;;37.28;14.35;;;3.70;99.90;;;;;;5046673;28;20076;-70
2022/01/25 03:04:27;;;;;;;35.35;14.02;;;2.90;99.90;;;;;;5047227;28;20111;-70
2022/01/25 03:06:53;;;;;;;37.15;14.48;;;1.80;99.90;;;;;;5046025;28;20523;-70
2022/01/25 03:09:19;;;;;;;36.50;13.82;;;2.60;99.90;;;;;;5048076;28;20400;-70
2022/01/25 03:11:47;;;;;;;34.70;13.50;;;3.50;99.90;;;;;;5049314;28;20029;-70
2022/01/25 03:14:13;;;;;;;39.58;14.27;;;3.10;99.90;;;;;;5051454;28;20045;-69
2022/01/25 03:16:46;;;;;;;41.13;13.88;;;3.10;99.90;;;;;;5052839;28;20120;-70
2022/01/25 03:19:46;;;;;;;34.50;13.10;;;3.30;99.90;;;;;;5049044;28;20033;-70
2022/01/25 03:22:30;;;;;;;33.63;13.00;;;6.50;99.90;;;;;;5049404;28;20566;-68
2022/01/25 03:24:56;;;;;;;35.75;13.38;;;3.50;99.90;;;;;;5049088;28;20041;-69
2022/01/25 03:27:22;;;;;;;42.00;13.25;;;2.90;99.90;;;;;;5051108;28;20522;-70
2022/01/25 03:29:48;;;;;;;33.45;12.50;;;2.20;99.90;;;;;;5035898;28;20466;-70
2022/01/25 03:32:13;;;;;;;35.30;11.73;;;4.10;99.90;;;;;;5051686;28;20025;-69
2022/01/25 03:34:39;;;;;;;46.33;12.65;;;4.80;99.90;;;;;;5045929;28;20041;-70
2022/01/25 03:37:05;;;;;;;31.80;12.13;;;3.50;99.90;;;;;;5049133;28;20416;-70
2022/01/25 03:39:31;;;;;;;28.95;11.55;;;3.60;99.90;;;;;;5049532;28;20043;-70
2022/01/25 03:41:57;;;;;;;28.13;10.88;;;2.50;99.90;;;;;;5049065;28;20029;-70
2022/01/25 03:44:23;;;;;;;26.42;10.70;;;;;;;;;;5050734;28;20040;-70
2022/01/25 03:52:00;;;;;;;27.13;11.15;;;2.60;99.90;;;;;;5049082;28;20067;-70
2022/01/25 03:54:25;;;;;;;27.23;10.52;;;2.30;99.90;;;;;;5050142;28;20017;-70
2022/01/25 03:56:51;;;;;;;27.02;11.27;;;3.90;99.90;;;;;;5048624;28;20374;-70
2022/01/25 03:59:17;;;;;;;25.90;10.63;;;3.00;99.90;;;;;;5051145;28;20025;-70
2022/01/25 04:01:43;;;;;;;27.33;11.40;;;3.50;99.90;;;;;;5050068;28;20029;-69
2022/01/25 04:04:13;;;;;;;30.20;11.88;;;2.70;99.90;;;;;;5049800;28;20086;-70
2022/01/25 04:06:43;;;;;;;33.63;11.50;;;2.30;99.90;;;;;;5050709;28;20028;-70
2022/01/25 04:09:09;;;;;;;33.05;12.18;;;3.10;99.90;;;;;;5047555;28;20043;-70
2022/01/25 04:11:36;;;;;;;35.63;12.55;;;3.70;99.90;;;;;;5050207;28;20025;-69
2022/01/25 04:14:02;;;;;;;35.22;13.02;;;3.70;99.90;;;;;;5047600;28;20060;-70
2022/01/25 04:16:37;;;;;;;28.10;11.50;;;4.60;99.90;;;;;;5049841;28;20025;-69
2022/01/25 04:19:09;;;;;;;41.30;12.90;;;4.80;99.90;;;;;;5048360;28;20060;-69
2022/01/25 04:26:47;;;;;;;33.80;12.57;;;1.60;99.90;;;;;;5036271;28;20090;-70
2022/01/25 04:29:12;;;;;;;31.60;12.23;;;3.70;99.90;;;;;;5050816;28;20582;-70
2022/01/25 04:31:39;;;;;;;35.50;12.82;;;;;;;;;;5048710;28;20013;-70
2022/01/25 04:34:24;;;;;;;33.75;12.48;;;2.50;99.90;;;;;;5048161;28;20037;-70
2022/01/25 04:58:21;;;;;;;34.35;12.00;;;2.50;99.90;;;;;;5025506;28;20034;-69
2022/01/25 05:00:49;;;;;;;41.42;12.77;;;3.00;99.90;;;;;;5026370;28;20044;-70
2022/01/25 05:03:21;;;;;;;32.88;13.32;;;2.20;99.90;;;;;;5025212;28;20033;-70
2022/01/25 05:08:31;;;;;;;26.70;11.60;;;3.60;99.90;;;;;;5026150;28;20025;-69
2022/01/25 05:11:08;;;;;;;32.35;11.48;;;2.80;99.90;;;;;;5011595;28;20064;-70
2022/01/25 05:16:36;;;;;;;33.67;12.13;;;2.20;99.90;;;;;;5032569;28;20510;-70
2022/01/25 05:24:28;;;;;;;32.70;12.73;;;2.70;99.90;;;;;;5038715;28;20102;-69
2022/01/25 05:26:54;;;;;;;36.28;12.25;;;4.40;99.90;;;;;;5048839;28;20041;-69
2022/01/25 05:29:20;;;;;;;34.17;12.10;;;3.20;99.90;;;;;;5048852;28;20032;-69
2022/01/25 05:31:46;;;;;;;29.85;11.98;;;3.20;99.90;;;;;;5045994;28;20431;-70
2022/01/25 05:34:12;;;;;;;28.73;11.95;;;4.10;99.90;;;;;;5046328;28;20060;-67
2022/01/25 05:36:39;;;;;;;26.92;11.65;;;4.30;99.90;;;;;;5045982;28;20028;-71
2022/01/25 05:39:11;;;;;;;30.88;11.45;;;2.70;99.90;;;;;;5046267;28;20459;-70
2022/01/25 05:41:40;;;;;;;32.60;11.68;;;3.20;99.90;;;;;;5036281;28;20112;-70
2022/01/25 05:46:46;;;;;;;27.85;11.30;;;2.70;99.90;;;;;;5037966;28;20135;-70
2022/01/25 05:49:11;;;;;;;31.75;10.90;;;3.90;99.90;;;;;;5044104;28;20136;-69
2022/01/25 05:51:38;;;;;;;32.88;11.55;;;4.00;99.90;;;;;;5046159;28;20575;-70
2022/01/25 05:54:03;;;;;;;34.80;12.38;;;5.30;99.90;;;;;;5046498;28;20566;-70
2022/01/25 05:56:29;;;;;;;29.15;12.70;;;2.40;99.90;;;;;;5040817;28;20029;-71
2022/01/25 05:58:55;;;;;;;31.02;12.75;;;;;;;;;;5037730;28;20036;-73
2022/01/25 06:01:21;;;;;;;33.60;13.20;;;4.30;99.90;;;;;;5046462;28;20063;-73
2022/01/25 06:03:47;;;;;;;33.80;12.98;;;5.90;99.90;;;;;;5047941;28;20025;-70
2022/01/25 06:06:13;;;;;;;31.33;12.70;;;2.70;99.90;;;;;;5045623;28;20037;-72
2022/01/25 06:08:39;;;;;;;47.42;13.68;;;3.30;99.90;;;;;;5048416;28;20082;-70
2022/01/25 06:11:05;;;;;;;32.65;12.48;;;;;;;;;;5046171;28;20407;-70
2022/01/25 06:13:31;;;;;;;32.75;12.80;;;3.30;99.90;;;;;;5040543;28;20053;-71
2022/01/25 06:15:57;;;;;;;31.80;12.73;;;3.40;99.90;;;;;;5045481;28;20135;-73
2022/01/25 06:18:23;;;;;;;36.70;12.82;;;1.90;99.90;;;;;;5043317;28;20075;-70
2022/01/25 06:20:49;;;;;;;40.88;13.65;;;2.70;99.90;;;;;;5046475;28;20488;-75
2022/01/25 06:23:17;;;;;;;41.70;14.00;;;2.50;99.90;;;;;;5047592;28;20547;-72
2022/01/25 06:25:43;;;;;;;47.92;12.65;;;3.10;99.90;;;;;;5046943;28;20077;-70
2022/01/25 06:28:08;;;;;;;43.08;13.35;;;3.20;99.90;;;;;;5039334;28;20441;-67
2022/01/25 06:30:34;;;;;;;37.78;13.07;;;2.40;99.90;;;;;;5039834;28;20033;-64
2022/01/25 06:33:00;;;;;;;34.95;13.07;;;4.70;99.90;;;;;;5036778;28;20037;-67
2022/01/25 06:35:31;;;;;;;42.85;13.50;;;4.60;99.90;;;;;;5041756;28;20106;-68
2022/01/25 06:37:57;;;;;;;37.22;12.73;;;2.10;99.90;;;;;;5048814;28;20112;-67
2022/01/25 06:40:24;;;;;;;38.92;13.95;;;3.50;99.90;;;;;;5045252;28;20139;-67
2022/01/25 06:42:50;;;;;;;36.80;14.15;;;5.50;99.90;;;;;;5041525;28;20076;-70
2022/01/25 06:45:19;;;;;;;39.70;13.25;;;;;;;;;;5048896;28;20068;-70
2022/01/25 06:47:46;;;;;;;40.67;14.13;;;3.30;99.90;;;;;;5046012;28;20468;-71
2022/01/25 06:50:14;;;;;;;45.22;14.65;;;3.00;99.90;;;;;;5060579;28;20119;-70
2022/01/25 06:52:41;;;;;;;39.60;14.35;;;3.30;99.90;;;;;;5048640;28;20127;-70
2022/01/25 06:55:09;;;;;;;38.10;13.40;;;3.00;99.90;;;;;;5048377;28;20082;-70
2022/01/25 06:57:36;;;;;;;36.60;13.98;;;2.80;99.90;;;;;;5048577;28;20021;-70
2022/01/25 07:00:05;;;;;;;36.65;13.55;;;3.50;99.90;;;;;;5044613;28;20487;-70
2022/01/25 07:02:31;;;;;;;33.45;12.82;;;;;;;;;;5041559;28;20037;-69
2022/01/25 07:04:57;;;;;;;39.35;13.25;;;2.10;99.90;;;;;;5057028;28;20033;-70
2022/01/25 07:07:23;;;;;;;36.75;13.05;;;;;;;;;;5046200;28;20443;-68
2022/01/25 07:09:49;;;;;;;36.95;13.30;;;3.80;99.90;;;;;;5048699;28;20116;-70
2022/01/25 07:12:15;;;;;;;37.63;13.18;;;;;;;;;;5053120;28;20079;-71
2022/01/25 07:14:40;;;;;;;33.90;13.10;;;3.20;99.90;;;;;;5047566;28;20049;-71
2022/01/25 07:17:07;;;;;;;32.10;12.32;;;;;;;;;;5056647;28;20036;-71
2022/01/25 07:19:32;;;;;;;32.45;12.55;;;2.90;99.90;;;;;;5047331;28;20084;-69
2022/01/25 07:21:58;;;;;;;47.72;12.45;;;3.20;99.90;;;;;;5049775;28;20065;-71
2022/01/25 07:24:24;;;;;;;34.60;12.75;;;1.30;99.90;;;;;;5054693;28;20074;-72
2022/01/25 07:26:50;;;;;;;43.10;13.48;;;2.70;99.90;;;;;;5054348;28;20585;-70
2022/01/25 07:29:16;;;;;;;41.72;12.52;;;3.40;99.90;;;;;;5055400;28;20067;-70
2022/01/25 07:31:43;;;;;;;38.55;13.45;;;3.00;99.90;;;;;;5052130;28;20511;-71
2022/01/25 07:34:09;;;;;;;38.33;13.38;;;2.30;99.90;;;;;;5052609;28;20029;-70
2022/01/25 07:36:37;;;;;;;38.50;13.85;;;;;;;;;;5044648;28;20036;-69
2022/01/25 07:39:03;;;;;;;33.10;13.30;;;2.20;99.90;;;;;;5050271;28;20025;-70
2022/01/25 07:41:29;;;;;;;33.95;13.00;;;2.20;99.90;;;;;;5050736;28;20403;-70
2022/01/25 07:43:56;;;;;;;52.83;14.57;;;2.90;99.90;;;;;;5048140;28;20036;-69
2022/01/25 07:46:22;;;;;;;40.63;13.65;;;1.70;99.90;;;;;;5050235;28;20029;-69
2022/01/25 07:48:55;;;;;;;33.00;13.38;;;2.40;99.90;;;;;;5050488;28;20451;-70
2022/01/25 07:51:21;;;;;;;40.10;13.93;;;2.70;99.90;;;;;;5050737;28;20044;-70
2022/01/25 07:53:47;;;;;;;43.75;14.82;;;2.70;99.90;;;;;;5044725;28;20033;-69
2022/01/25 07:56:12;;;;;;;42.58;14.23;;;2.80;99.90;;;;;;5049900;28;20033;-69
2022/01/25 07:58:38;;;;;;;43.58;14.18;;;2.60;99.90;;;;;;5042897;28;20044;-69
2022/01/25 08:01:05;;;;;;;43.67;14.20;;;4.70;99.90;;;;;;5045232;28;20395;-69
2022/01/25 08:03:31;;;;;;;48.33;14.93;;;2.60;99.90;;;;;;5047954;28;20039;-70
2022/01/25 08:05:57;;;;;;;40.45;14.95;;;3.00;99.90;;;;;;5049830;28;20041;-70
2022/01/25 08:08:23;;;;;;;38.63;14.30;;;3.10;99.90;;;;;;5047732;28;20078;-69
2022/01/25 08:10:49;;;;;;;37.88;13.52;;;3.20;99.90;;;;;;5050415;28;20033;-69
2022/01/25 08:13:15;;;;;;;47.92;14.45;;;3.10;99.90;;;;;;5047510;28;20118;-69
2022/01/25 08:15:41;;;;;;;39.30;13.52;;;3.30;99.90;;;;;;5044119;28;20404;-69
2022/01/25 08:18:07;;;;;;;35.67;12.73;;;;;;;;;;5042609;28;20625;-69
2022/01/25 08:20:32;;;;;;;40.20;13.45;;;2.60;99.90;;;;;;5048470;28;20040;-69
2022/01/25 08:22:58;;;;;;;41.13;13.65;;;2.70;99.90;;;;;;5049018;28;20276;-68
2022/01/25 08:25:24;;;;;;;50.17;13.70;;;2.70;99.90;;;;;;5049233;28;20175;-69
2022/01/25 08:27:50;;;;;;;37.97;13.05;;;3.10;99.90;;;;;;5047991;28;20182;-69
2022/01/25 08:30:16;;;;;;;48.75;12.88;;;;;;;;;;5044974;28;20476;-68
2022/01/25 08:32:42;;;;;;;33.55;12.82;;;2.70;99.90;;;;;;5046542;28;20052;-68
2022/01/25 08:35:10;;;;;;;38.42;13.70;;;3.10;99.90;;;;;;5045975;28;20021;-68
2022/01/25 08:37:36;;;;;;;34.47;12.93;;;2.70;99.90;;;;;;5048321;28;20505;-67
2022/01/25 08:40:04;;;;;;;37.42;12.82;;;3.10;99.90;;;;;;5047690;28;20024;-67
2022/01/25 08:42:30;;;;;;;30.88;12.98;;;1.90;99.90;;;;;;5044862;28;20025;-68
2022/01/25 08:44:55;;;;;;;34.80;12.35;;;3.10;99.90;;;;;;5042630;28;20024;-68
2022/01/25 08:47:21;;;;;;;34.20;11.75;;;3.00;99.90;;;;;;5048142;28;20033;-69
2022/01/25 08:49:47;;;;;;;33.25;11.32;;;3.10;99.90;;;;;;5048354;28;20064;-69
2022/01/25 08:52:13;;;;;;;37.33;11.25;;;4.00;99.90;;;;;;5043286;28;20078;-67
2022/01/25 08:54:39;;;;;;;32.47;11.90;;;3.10;99.90;;;;;;5042253;28;20033;-68
2022/01/25 08:57:05;;;;;;;33.00;11.65;;;4.70;99.90;;;;;;5048972;28;20056;-68
2022/01/25 08:59:31;;;;;;;27.42;10.77;;;3.10;99.20;;;;;;5049063;28;20037;-68
2022/01/25 09:01:57;;;;;;;29.63;10.77;;;3.20;99.90;;;;;;5051241;28;20028;-70
2022/01/25 09:04:23;;;;;;;43.88;11.68;;;3.00;99.90;;;;;;5046034;28;20025;-70
2022/01/25 09:06:52;;;;;;;31.90;10.18;;;3.50;99.90;;;;;;5048297;28;20025;-70
2022/01/25 09:09:18;;;;;;;41.45;10.82;;;5.10;99.90;;;;;;5043228;28;20064;-70
2022/01/25 09:11:44;;;;;;;27.77;11.75;;;2.80;99.90;;;;;;5047988;28;20064;-70
2022/01/25 09:14:11;;;;;;;34.08;11.50;;;3.20;98.90;;;;;;5048901;28;20041;-70
2022/01/25 09:16:37;;;;;;;27.42;10.85;;;5.40;99.90;;;;;;5050478;28;20017;-70
2022/01/25 09:19:04;;;;;;;30.45;10.63;;;1.50;99.90;;;;;;5046606;28;20051;-70
2022/01/25 09:21:30;;;;;;;37.22;11.90;;;2.90;99.90;;;;;;5042295;28;20032;-70
2022/01/25 09:23:56;;;;;;;30.92;11.48;;;3.00;99.90;;;;;;5042937;28;20079;-69
2022/01/25 09:26:23;;;;;;;27.92;10.70;;;2.90;99.90;;;;;;5046289;28;20090;-69
2022/01/25 09:28:51;;;;;;;32.08;10.95;;;;;;;;;;5050241;28;20025;-70
2022/01/25 09:31:17;;;;;;;33.45;12.05;;;3.10;99.90;;;;;;5045378;28;20071;-70
2022/01/25 09:33:43;;;;;;;33.08;11.73;;;3.20;99.90;;;;;;5046678;28;20025;-70
2022/01/25 09:36:08;;;;;;;31.10;11.93;;;3.00;99.90;;;;;;5042282;28;20040;-70
2022/01/25 09:38:36;;;;;;;27.23;11.00;;;3.30;98.40;;;;;;5044393;28;20488;-70
2022/01/25 09:41:02;;;;;;;35.15;13.10;;;3.20;99.90;;;;;;5050055;28;20039;-70
2022/01/25 09:43:28;;;;;;;25.73;11.27;;;3.50;99.90;;;;;;5042180;28;20500;-70
2022/01/25 09:45:55;;;;;;;29.00;12.55;;;3.50;98.60;;;;;;5041602;28;20079;-70
2022/01/25 09:48:21;;;;;;;32.35;12.38;;;2.60;99.90;;;;;;5046064;28;20053;-69
2022/01/25 09:50:47;;;;;;;32.30;12.25;;;3.90;99.90;;;;;;5048053;28;20570;-70
2022/01/25 09:53:13;;;;;;;26.65;12.13;;;3.80;99.90;;;;;;5049495;28;20111;-70
2022/01/25 09:55:40;;;;;;;27.52;12.20;;;3.10;99.90;;;;;;5045615;28;20044;-69
2022/01/25 09:58:08;;;;;;;31.13;12.23;;;3.90;99.90;;;;;;5048126;28;20037;-70
2022/01/25 10:00:36;;;;;;;31.55;11.52;;;4.30;99.90;;;;;;5048469;28;20052;-70
2022/01/25 10:05:36;;;;;;;38.78;12.65;;;4.80;97.60;;;;;;5047458;28;20033;-70
2022/01/25 10:08:14;;;;;;;44.80;14.50;;;3.80;99.90;;;;;;5048920;28;20112;-70
2022/01/25 10:10:45;;;;;;;35.42;12.90;;;6.10;99.90;;;;;;5049045;28;20033;-70
2022/01/25 10:14:02;;;;;;;31.27;12.30;;;4.60;99.90;;;;;;5039560;28;20072;-70
2022/01/25 10:16:31;;;;;;;30.50;12.00;;;4.00;99.90;;;;;;5042873;28;20131;-70
2022/01/25 10:19:01;;;;;;;29.65;11.77;;;4.50;99.90;;;;;;5045948;28;20025;-70
2022/01/25 10:21:28;;;;;;;32.38;12.13;;;4.20;99.90;;;;;;5047828;28;20070;-70
2022/01/25 10:24:12;;;;;;;37.63;12.45;;;3.80;99.90;;;;;;5050357;28;20099;-70
2022/01/25 10:26:41;;;;;;;35.78;11.85;;;3.10;99.90;;;;;;5049998;28;20507;-71
2022/01/25 10:29:09;;;;;;;27.05;12.00;;;3.90;97.40;;;;;;5052353;28;20025;-70
2022/01/25 10:31:40;;;;;;;27.27;11.93;;;4.00;99.90;;;;;;5043465;28;20403;-66
2022/01/25 10:34:08;;;;;;;29.40;11.35;;;4.50;99.90;;;;;;5051810;28;20510;-67
2022/01/25 10:36:45;;;;;;;28.75;11.35;;;2.80;99.90;;;;;;5044752;28;20029;-67
2022/01/25 10:39:11;;;;;;;27.70;12.05;;;5.60;99.90;;;;;;5050832;28;20029;-67
2022/01/25 10:41:39;;;;;;;25.52;11.90;;;4.20;99.30;;;;;;5048735;28;20025;-67
2022/01/25 10:44:08;;;;;;;31.35;13.10;;;3.60;99.90;;;;;;5052993;28;20100;-67
2022/01/25 10:46:34;;;;;;;34.45;14.52;;;4.40;99.90;;;;;;5051439;28;20431;-67
2022/01/25 10:49:09;;;;;;;33.22;13.65;;;4.40;99.90;;;;;;5048922;28;20035;-67
2022/01/25 10:51:38;;;;;;;35.65;15.32;;;4.40;96.70;;;;;;5063602;28;20388;-67
2022/01/25 10:54:12;;;;;;;40.28;15.52;;;6.10;99.90;;;;;;5045814;28;20471;-68
2022/01/25 10:56:42;;;;;;;35.47;14.52;;;4.40;99.90;;;;;;5037770;28;20399;-68
2022/01/25 10:59:11;;;;;;;38.28;13.73;;;4.50;96.60;;;;;;5050161;28;20024;-69
2022/01/25 11:01:39;;;;;;;30.63;13.32;;;3.80;99.20;;;;;;5048833;28;20037;-72
2022/01/25 11:04:13;;;;;;;32.97;14.68;;;4.80;99.60;;;;;;5045286;28;20108;-69
2022/01/25 11:06:40;;;;;;;33.70;14.63;;;4.30;95.10;;;;;;5043746;28;20044;-69
2022/01/25 11:09:09;;;;;;;33.95;15.40;;;4.40;99.40;;;;;;5048273;28;20033;-70
2022/01/25 11:11:40;;;;;;;36.25;15.95;;;4.60;99.70;;;;;;5050335;28;20082;-68
2022/01/25 11:16:52;;;;;;;36.28;15.00;;;6.40;99.90;;;;;;5051942;28;19970;-71
2022/01/25 11:19:19;;;;;;;36.85;16.35;;;4.20;99.40;;;;;;5047080;28;20033;-68
2022/01/25 11:21:45;;;;;;;39.72;16.90;;;4.30;99.10;;;;;;5050486;28;20298;-69
2022/01/25 11:24:15;;;;;;;37.47;17.45;;;2.70;98.80;;;;;;5046686;28;20072;-69
2022/01/25 11:26:43;;;;;;;40.00;18.13;;;4.50;99.20;;;;;;5047887;28;20045;-68
2022/01/25 11:29:09;;;;;;;36.65;16.83;;;3.50;98.90;;;;;;5048215;28;20025;-69
2022/01/25 11:31:38;;;;;;;43.45;19.67;;;3.90;99.00;;;;;;5046708;28;21480;-68
2022/01/25 11:34:08;;;;;;;44.65;18.60;;;4.60;94.80;;;;;;5042756;28;20033;-69
2022/01/25 11:36:51;;;;;;;44.72;19.27;;;5.20;98.30;;;;;;5047982;28;20052;-68
2022/01/25 11:39:21;;;;;;;42.42;19.77;;;4.70;97.90;;;;;;5048537;28;20098;-69
2022/01/25 11:41:47;;;;;;;44.08;18.83;;;4.60;94.20;;;;;;5050620;28;20029;-68
2022/01/25 11:44:26;;;;;;;38.70;16.48;;;4.70;98.20;;;;;;5051945;28;20434;-67
2022/01/25 11:46:56;;;;;;;37.67;16.80;;;5.60;98.60;;;;;;5047930;28;20041;-68
2022/01/25 11:49:23;;;;;;;33.35;15.15;;;5.70;98.50;;;;;;5046592;28;20032;-68
2022/01/25 11:52:12;;;;;;;30.20;14.85;;;4.80;98.20;;;;;;5047499;28;20029;-68
2022/01/25 11:54:40;;;;;;;36.45;14.77;;;5.70;98.80;;;;;;5045303;28;20506;-68
2022/01/25 11:57:26;;;;;;;35.38;15.75;;;4.90;94.80;;;;;;5044912;28;20029;-68
2022/01/25 11:59:57;;;;;;;38.05;15.95;;;4.90;96.30;;;;;;5040791;28;20115;-68
2022/01/25 12:02:39;;;;;;;38.28;18.60;;;5.00;98.20;;;;;;5042851;28;20048;-68
2022/01/25 12:05:07;;;;;;;34.70;15.80;;;5.80;98.40;;;;;;5048266;28;20072;-68
2022/01/25 12:07:39;;;;;;;36.88;15.20;;;5.40;98.20;;;;;;5048596;28;20044;-67
2022/01/25 12:10:32;;;;;;;37.97;16.98;;;5.60;98.10;;;;;;5046930;28;20079;-69
2022/01/25 12:13:25;;;;;;;40.97;16.73;;;6.70;98.50;;;;;;5045633;28;20119;-68
2022/01/25 12:16:24;;;;;;;32.08;15.23;;;4.20;97.20;;;;;;5042742;28;20086;-67
2022/01/25 12:18:59;;;;;;;37.83;15.10;;;6.20;97.50;;;;;;5047965;28;20071;-67
2022/01/25 12:21:47;;;;;;;38.42;14.95;;;5.70;97.10;;;;;;5049087;28;20078;-67
2022/01/25 12:24:28;;;;;;;39.80;15.95;;;5.70;97.10;;;;;;5047160;28;20112;-66
2022/01/25 12:27:22;;;;;;;32.13;14.35;;;5.70;97.10;;;;;;5038933;28;20045;-68
2022/01/25 12:30:00;;;;;;;32.70;14.60;;;4.20;97.30;;;;;;5047553;28;20064;-67
2022/01/25 12:32:26;;;;;;;30.50;14.55;;;5.40;97.20;;;;;;5049616;28;20059;-67
2022/01/25 12:35:03;;;;;;;35.15;15.35;;;6.10;97.80;;;;;;5046647;28;20460;-69
2022/01/25 12:37:46;;;;;;;38.95;16.67;;;6.10;98.20;;;;;;5048270;28;20457;-68
2022/01/25 12:40:25;;;;;;;35.17;15.85;;;5.20;93.60;;;;;;5046786;28;20175;-68
2022/01/25 12:43:33;;;;;;;39.78;16.00;;;5.60;97.70;;;;;;5047553;28;20403;-68
2022/01/25 12:46:18;;;;;;;43.25;15.98;;;5.40;97.40;;;;;;5045786;28;20072;-68
2022/01/25 12:48:49;;;;;;;34.78;15.05;;;6.20;97.70;;;;;;5041159;28;20549;-68
2022/01/25 12:51:21;;;;;;;37.88;16.35;;;5.30;93.90;;;;;;5047640;28;20599;-68
2022/01/25 12:53:50;;;;;;;33.15;15.23;;;5.60;98.30;;;;;;5042087;28;20028;-67
2022/01/25 12:56:25;;;;;;;37.38;13.68;;;6.10;98.50;;;;;;5045023;28;20028;-68
2022/01/25 12:58:57;;;;;;;33.00;14.32;;;5.50;98.20;;;;;;5045155;28;20071;-69
2022/01/25 13:01:26;;;;;;;28.52;13.02;;;7.10;99.40;;;;;;5041315;28;20032;-68
2022/01/25 13:03:59;;;;;;;32.35;13.90;;;5.30;95.10;;;;;;5042050;28;20045;-68
2022/01/25 13:06:32;;;;;;;29.48;12.90;;;3.40;98.40;;;;;;5044073;28;20095;-68
2022/01/25 13:14:32;;;;;;;31.42;14.15;;;4.60;99.20;;;;;;5047583;28;20037;-67
2022/01/25 13:17:00;;;;;;;34.20;15.45;;;4.20;99.70;;;;;;5045024;28;20048;-68
2022/01/25 13:19:34;;;;;;;34.00;14.70;;;5.30;96.20;;;;;;5046167;28;20055;-68
2022/01/25 13:22:09;;;;;;;32.78;15.10;;;4.30;99.20;;;;;;5042674;28;20041;-68
2022/01/25 13:24:47;;;;;;;30.60;13.55;;;4.60;99.70;;;;;;5038921;28;20078;-68
2022/01/25 13:27:16;;;;;;;31.75;13.77;;;5.10;99.90;;;;;;5048398;28;20063;-68
2022/01/25 13:32:37;;;;;;;30.10;14.20;;;5.20;99.80;;;;;;5047384;28;20403;-68
2022/01/25 13:35:03;;;;;;;33.75;14.88;;;5.50;99.90;;;;;;5050627;28;20115;-68
2022/01/25 13:37:29;;;;;;;35.33;14.35;;;;;;;;;;5039128;28;20117;-68
2022/01/25 13:39:59;;;;;;;36.30;14.90;;;4.90;99.90;;;;;;5046777;28;20557;-68
2022/01/25 13:42:41;;;;;;;31.80;14.38;;;4.90;99.90;;;;;;5048452;28;20028;-67
2022/01/25 13:48:02;;;;;;;34.22;14.88;;;3.60;99.90;;;;;;5034729;28;20451;-69
2022/01/25 13:50:29;;;;;;;35.25;14.77;;;4.70;99.90;;;;;;5047867;28;21090;-68
2022/01/25 13:52:55;;;;;;;36.08;15.30;;;5.60;99.90;;;;;;5038068;28;20072;-67
2022/01/25 13:55:22;;;;;;;38.15;15.27;;;;;;;;;;5042736;28;20029;-69
2022/01/25 13:57:47;;;;;;;36.72;15.75;;;5.20;99.90;;;;;;5042202;28;20033;-68
2022/01/25 14:00:14;;;;;;;32.65;14.65;;;;;;;;;;5050630;28;20075;-67
2022/01/25 14:02:40;;;;;;;33.20;13.95;;;7.20;99.90;;;;;;5052659;28;20025;-68
2022/01/25 14:05:07;;;;;;;34.28;15.38;;;5.50;99.90;;;;;;5054549;28;20064;-69
2022/01/25 14:07:39;;;;;;;36.63;14.93;;;6.40;99.90;;;;;;5044625;28;20021;-67
2022/01/25 14:10:10;;;;;;;35.38;15.68;;;6.00;99.90;;;;;;5043885;28;20029;-68
2022/01/25 14:23:46;;;;;;;37.08;15.40;;;5.50;97.20;;;;;;5036671;28;20199;-68
2022/01/25 14:26:12;;;;;;;39.08;16.30;;;5.50;99.90;;;;;;5049591;28;20516;-68
2022/01/25 14:28:42;;;;;;;37.67;15.82;;;5.00;99.90;;;;;;5051114;28;20021;-68
2022/01/25 14:31:18;;;;;;;33.03;15.57;;;5.50;97.50;;;;;;5047901;28;20033;-69
2022/01/25 14:34:00;;;;;;;39.47;15.98;;;5.10;99.90;;;;;;5049224;28;20292;-69
2022/01/25 14:36:28;;;;;;;35.25;14.70;;;5.20;99.90;;;;;;5049399;28;20121;-69
2022/01/25 14:38:55;;;;;;;40.38;16.52;;;5.40;98.00;;;;;;5035573;28;20025;-67
2022/01/25 14:41:25;;;;;;;38.17;16.13;;;7.10;99.90;;;;;;5050606;28;20025;-69
2022/01/25 14:43:57;;;;;;;40.00;17.08;;;5.40;98.60;;;;;;5047704;28;20480;-68
2022/01/25 14:46:41;;;;;;;36.15;15.15;;;7.10;99.90;;;;;;5047448;28;20110;-68
2022/01/25 14:49:14;;;;;;;37.80;16.83;;;5.70;98.80;;;;;;5047570;28;20112;-68
2022/01/25 14:51:46;;;;;;;40.63;16.60;;;5.30;98.60;;;;;;5046272;28;20017;-68
2022/01/25 14:54:17;;;;;;;38.53;17.15;;;5.20;99.90;;;;;;5040637;28;20492;-68
2022/01/25 14:56:52;;;;;;;41.08;15.93;;;5.50;99.90;;;;;;5035030;28;20029;-67
2022/01/25 14:59:29;;;;;;;42.15;16.50;;;5.10;99.90;;;;;;5048976;28;20603;-68
2022/01/25 15:01:55;;;;;;;34.60;15.80;;;;;;;;;;5047013;28;20036;-67
2022/01/25 15:04:22;;;;;;;39.15;16.33;;;4.70;99.90;;;;;;5044861;28;20021;-68
2022/01/25 15:06:48;;;;;;;41.00;16.30;;;5.20;99.90;;;;;;5048912;28;20495;-68
2022/01/25 15:09:15;;;;;;;39.60;16.98;;;4.80;99.90;;;;;;5041935;28;20029;-68
2022/01/25 15:11:41;;;;;;;41.13;16.00;;;4.60;99.90;;;;;;5049674;28;20033;-67
2022/01/25 15:14:10;;;;;;;39.53;16.67;;;5.20;99.90;;;;;;5053693;28;20060;-68
2022/01/25 15:16:36;;;;;;;41.70;16.83;;;5.10;99.90;;;;;;5049672;28;20041;-67
2022/01/25 15:19:04;;;;;;;40.53;16.15;;;5.20;99.90;;;;;;5046946;28;20072;-68
2022/01/25 15:21:30;;;;;;;44.75;16.95;;;5.00;99.90;;;;;;5044596;28;20028;-67
2022/01/25 15:23:55;;;;;;;44.95;18.25;;;5.20;99.90;;;;;;5047731;28;20033;-68